sensor_id;sensor_type;location;lat;lon;timestamp;temperature;humidity
6206;DHT22;3136;48.788;9.772;2023-03-03T00:00:38;-0.60;99.90
6206;DHT22;3136;48.788;9.772;2023-03-03T00:03:06;-0.60;99.90
6206;DHT22;3136;48.788;9.772;2023-03-03T00:05:34;-0.60;1.00
6206;DHT22;3136;48.788;9.772;2023-03-03T00:08:00;-0.70;1.00
6206;DHT22;3136;48.788;9.772;2023-03-03T00:10:25;-0.70;99.90
6206;DHT22;3136;48.788;9.772;2023-03-03T00:12:51;-0.70;99.90
6206;DHT22;3136;48.788;9.772;2023-03-03T00:15:19;-0.80;1.00
6206;DHT22;3136;48.788;9.772;2023-03-03T00:17:46;-0.70;1.00
6206;DHT22;3136;48.788;9.772;2023-03-03T00:22:52;-0.80;1.00
6206;DHT22;3136;48.788;9.772;2023-03-03T00:25:31;-0.80;23.70
6206;DHT22;3136;48.788;9.772;2023-03-03T00:28:07;-0.90;17.70
6206;DHT22;3136;48.788;9.772;2023-03-03T00:30:40;-0.90;1.00
6206;DHT22;3136;48.788;9.772;2023-03-03T00:35:44;-1.00;99.90
6206;DHT22;3136;48.788;9.772;2023-03-03T00:38:14;-1.00;99.90
6206;DHT22;3136;48.788;9.772;2023-03-03T00:40:41;-1.00;99.90
6206;DHT22;3136;48.788;9.772;2023-03-03T00:43:31;-1.00;1.00
6206;DHT22;3136;48.788;9.772;2023-03-03T00:45:58;-1.10;1.00
6206;DHT22;3136;48.788;9.772;2023-03-03T00:48:26;-1.10;1.00
6206;DHT22;3136;48.788;9.772;2023-03-03T00:50:57;-1.10;1.00
6206;DHT22;3136;48.788;9.772;2023-03-03T00:53:25;-1.10;1.00
6206;DHT22;3136;48.788;9.772;2023-03-03T00:55:52;-1.20;1.00
6206;DHT22;3136;48.788;9.772;2023-03-03T00:58:18;-1.20;1.00
6206;DHT22;3136;48.788;9.772;2023-03-03T01:00:53;-1.20;1.00
6206;DHT22;3136;48.788;9.772;2023-03-03T01:03:21;-1.20;99.90
6206;DHT22;3136;48.788;9.772;2023-03-03T01:05:48;-1.20;99.90
6206;DHT22;3136;48.788;9.772;2023-03-03T01:08:14;-1.30;99.90
6206;DHT22;3136;48.788;9.772;2023-03-03T01:10:45;-1.30;99.90
6206;DHT22;3136;48.788;9.772;2023-03-03T01:13:12;-1.30;1.00
6206;DHT22;3136;48.788;9.772;2023-03-03T01:15:39;-1.30;1.00
6206;DHT22;3136;48.788;9.772;2023-03-03T01:18:05;-1.30;1.00
6206;DHT22;3136;48.788;9.772;2023-03-03T01:20:31;-1.30;1.00
6206;DHT22;3136;48.788;9.772;2023-03-03T01:22:57;-1.30;1.00
6206;DHT22;3136;48.788;9.772;2023-03-03T01:25:22;-1.30;99.90
6206;DHT22;3136;48.788;9.772;2023-03-03T01:27:48;-1.30;99.90
6206;DHT22;3136;48.788;9.772;2023-03-03T01:30:14;-1.20;1.00
6206;DHT22;3136;48.788;9.772;2023-03-03T01:32:40;-1.20;1.00
6206;DHT22;3136;48.788;9.772;2023-03-03T01:35:06;-1.10;1.00
6206;DHT22;3136;48.788;9.772;2023-03-03T01:37:36;-1.10;1.00
6206;DHT22;3136;48.788;9.772;2023-03-03T01:40:04;-1.00;1.00
6206;DHT22;3136;48.788;9.772;2023-03-03T01:42:31;-0.90;1.00
6206;DHT22;3136;48.788;9.772;2023-03-03T01:47:37;-0.80;99.90
6206;DHT22;3136;48.788;9.772;2023-03-03T01:50:11;-0.70;99.90
6206;DHT22;3136;48.788;9.772;2023-03-03T01:52:41;-0.70;99.90
6206;DHT22;3136;48.788;9.772;2023-03-03T01:55:21;-0.60;20.00
6206;DHT22;3136;48.788;9.772;2023-03-03T01:58:01;-0.60;1.00
6206;DHT22;3136;48.788;9.772;2023-03-03T02:00:28;-0.40;1.00
6206;DHT22;3136;48.788;9.772;2023-03-03T02:02:54;-0.50;1.00
6206;DHT22;3136;48.788;9.772;2023-03-03T02:05:20;-0.50;99.90
6206;DHT22;3136;48.788;9.772;2023-03-03T02:07:46;-0.40;86.60
6206;DHT22;3136;48.788;9.772;2023-03-03T02:10:15;-0.40;36.20
6206;DHT22;3136;48.788;9.772;2023-03-03T02:12:47;-0.30;1.00
6206;DHT22;3136;48.788;9.772;2023-03-03T02:15:31;-0.30;99.90
6206;DHT22;3136;48.788;9.772;2023-03-03T02:17:59;-0.30;99.90
6206;DHT22;3136;48.788;9.772;2023-03-03T02:20:51;-0.30;99.90
6206;DHT22;3136;48.788;9.772;2023-03-03T02:23:34;-0.20;1.00
6206;DHT22;3136;48.788;9.772;2023-03-03T02:28:32;-0.30;1.00
6206;DHT22;3136;48.788;9.772;2023-03-03T02:30:59;-0.30;1.00
6206;DHT22;3136;48.788;9.772;2023-03-03T02:33:26;-0.30;1.00
6206;DHT22;3136;48.788;9.772;2023-03-03T02:35:52;-0.20;1.00
6206;DHT22;3136;48.788;9.772;2023-03-03T02:38:20;-0.20;1.00
6206;DHT22;3136;48.788;9.772;2023-03-03T02:41:13;-0.20;1.00
6206;DHT22;3136;48.788;9.772;2023-03-03T02:43:50;-0.20;1.00
6206;DHT22;3136;48.788;9.772;2023-03-03T02:46:18;-0.20;99.90
6206;DHT22;3136;48.788;9.772;2023-03-03T02:48:44;-0.20;1.00
6206;DHT22;3136;48.788;9.772;2023-03-03T02:51:09;-0.10;1.00
6206;DHT22;3136;48.788;9.772;2023-03-03T02:53:35;-0.10;99.90
6206;DHT22;3136;48.788;9.772;2023-03-03T02:56:00;-0.10;99.90
6206;DHT22;3136;48.788;9.772;2023-03-03T02:58:29;0.00;99.90
6206;DHT22;3136;48.788;9.772;2023-03-03T03:00:54;0.00;99.90
6206;DHT22;3136;48.788;9.772;2023-03-03T03:03:21;0.00;99.90
6206;DHT22;3136;48.788;9.772;2023-03-03T03:05:47;0.10;99.90
6206;DHT22;3136;48.788;9.772;2023-03-03T03:08:12;0.10;99.90
6206;DHT22;3136;48.788;9.772;2023-03-03T03:10:38;0.10;1.00
6206;DHT22;3136;48.788;9.772;2023-03-03T03:13:03;0.20;1.00
6206;DHT22;3136;48.788;9.772;2023-03-03T03:15:29;0.10;1.00
6206;DHT22;3136;48.788;9.772;2023-03-03T03:17:55;0.20;1.00
6206;DHT22;3136;48.788;9.772;2023-03-03T03:20:20;0.20;1.00
6206;DHT22;3136;48.788;9.772;2023-03-03T03:22:46;0.10;1.00
6206;DHT22;3136;48.788;9.772;2023-03-03T03:25:12;0.10;1.00
6206;DHT22;3136;48.788;9.772;2023-03-03T03:27:37;0.20;1.00
6206;DHT22;3136;48.788;9.772;2023-03-03T03:30:03;0.20;1.00
6206;DHT22;3136;48.788;9.772;2023-03-03T03:32:28;0.20;1.00
6206;DHT22;3136;48.788;9.772;2023-03-03T03:34:54;0.30;1.00
6206;DHT22;3136;48.788;9.772;2023-03-03T03:37:20;0.30;1.00
6206;DHT22;3136;48.788;9.772;2023-03-03T03:39:45;0.30;1.00
6206;DHT22;3136;48.788;9.772;2023-03-03T03:42:11;0.30;1.00
6206;DHT22;3136;48.788;9.772;2023-03-03T03:44:36;0.30;1.00
6206;DHT22;3136;48.788;9.772;2023-03-03T03:47:02;0.30;99.90
6206;DHT22;3136;48.788;9.772;2023-03-03T03:49:28;0.30;1.00
6206;DHT22;3136;48.788;9.772;2023-03-03T03:51:54;0.30;1.00
6206;DHT22;3136;48.788;9.772;2023-03-03T03:54:20;0.30;1.00
6206;DHT22;3136;48.788;9.772;2023-03-03T03:56:45;0.30;1.00
6206;DHT22;3136;48.788;9.772;2023-03-03T03:59:11;0.30;1.00
6206;DHT22;3136;48.788;9.772;2023-03-03T04:01:36;0.30;1.00
6206;DHT22;3136;48.788;9.772;2023-03-03T04:04:02;0.30;1.00
6206;DHT22;3136;48.788;9.772;2023-03-03T04:06:29;0.20;1.00
6206;DHT22;3136;48.788;9.772;2023-03-03T04:08:55;0.20;1.00
6206;DHT22;3136;48.788;9.772;2023-03-03T04:11:20;0.20;1.00
6206;DHT22;3136;48.788;9.772;2023-03-03T04:13:46;0.10;1.00
6206;DHT22;3136;48.788;9.772;2023-03-03T04:16:11;0.10;1.00
6206;DHT22;3136;48.788;9.772;2023-03-03T04:18:37;0.10;1.00
6206;DHT22;3136;48.788;9.772;2023-03-03T04:21:03;0.10;1.00
6206;DHT22;3136;48.788;9.772;2023-03-03T04:23:28;0.10;1.00
6206;DHT22;3136;48.788;9.772;2023-03-03T04:25:54;0.10;1.00
6206;DHT22;3136;48.788;9.772;2023-03-03T04:28:20;0.10;1.00
6206;DHT22;3136;48.788;9.772;2023-03-03T04:30:46;0.20;1.00
6206;DHT22;3136;48.788;9.772;2023-03-03T04:33:12;0.20;1.00
6206;DHT22;3136;48.788;9.772;2023-03-03T04:35:38;0.20;1.00
6206;DHT22;3136;48.788;9.772;2023-03-03T04:38:03;0.20;1.00
6206;DHT22;3136;48.788;9.772;2023-03-03T04:40:30;0.20;1.00
6206;DHT22;3136;48.788;9.772;2023-03-03T04:42:55;0.20;1.00
6206;DHT22;3136;48.788;9.772;2023-03-03T04:45:21;0.20;1.00
6206;DHT22;3136;48.788;9.772;2023-03-03T04:47:46;0.20;1.00
6206;DHT22;3136;48.788;9.772;2023-03-03T04:50:12;0.20;1.00
6206;DHT22;3136;48.788;9.772;2023-03-03T04:52:37;0.20;1.00
6206;DHT22;3136;48.788;9.772;2023-03-03T04:55:04;0.20;1.00
6206;DHT22;3136;48.788;9.772;2023-03-03T04:57:29;0.20;1.00
6206;DHT22;3136;48.788;9.772;2023-03-03T04:59:55;0.10;1.00
6206;DHT22;3136;48.788;9.772;2023-03-03T05:02:21;0.20;21.10
6206;DHT22;3136;48.788;9.772;2023-03-03T05:04:46;0.20;54.30
6206;DHT22;3136;48.788;9.772;2023-03-03T05:07:12;0.20;85.70
6206;DHT22;3136;48.788;9.772;2023-03-03T05:09:38;0.20;99.90
6206;DHT22;3136;48.788;9.772;2023-03-03T05:12:03;0.20;99.90
6206;DHT22;3136;48.788;9.772;2023-03-03T05:14:29;0.30;99.90
6206;DHT22;3136;48.788;9.772;2023-03-03T05:16:55;0.30;41.80
6206;DHT22;3136;48.788;9.772;2023-03-03T05:19:21;0.30;1.00
6206;DHT22;3136;48.788;9.772;2023-03-03T05:21:47;0.30;1.00
6206;DHT22;3136;48.788;9.772;2023-03-03T05:24:13;0.30;1.00
6206;DHT22;3136;48.788;9.772;2023-03-03T05:26:39;0.30;1.00
6206;DHT22;3136;48.788;9.772;2023-03-03T05:29:06;0.30;1.00
6206;DHT22;3136;48.788;9.772;2023-03-03T05:31:32;0.30;1.00
6206;DHT22;3136;48.788;9.772;2023-03-03T05:33:57;0.30;1.00
6206;DHT22;3136;48.788;9.772;2023-03-03T05:36:23;0.30;1.00
6206;DHT22;3136;48.788;9.772;2023-03-03T05:38:49;0.30;1.00
6206;DHT22;3136;48.788;9.772;2023-03-03T05:41:14;0.30;1.00
6206;DHT22;3136;48.788;9.772;2023-03-03T05:43:40;0.30;1.00
6206;DHT22;3136;48.788;9.772;2023-03-03T05:46:05;0.30;1.00
6206;DHT22;3136;48.788;9.772;2023-03-03T05:48:31;0.30;66.50
6206;DHT22;3136;48.788;9.772;2023-03-03T05:51:00;0.30;99.90
6206;DHT22;3136;48.788;9.772;2023-03-03T05:53:26;0.30;99.90
6206;DHT22;3136;48.788;9.772;2023-03-03T05:55:52;0.30;99.90
6206;DHT22;3136;48.788;9.772;2023-03-03T05:58:18;-1.60;99.90
6206;DHT22;3136;48.788;9.772;2023-03-03T06:00:43;0.30;99.90
6206;DHT22;3136;48.788;9.772;2023-03-03T06:03:09;0.20;99.90
6206;DHT22;3136;48.788;9.772;2023-03-03T06:05:34;0.30;99.90
6206;DHT22;3136;48.788;9.772;2023-03-03T06:08:00;0.30;99.90
6206;DHT22;3136;48.788;9.772;2023-03-03T06:10:26;0.30;99.90
6206;DHT22;3136;48.788;9.772;2023-03-03T06:12:51;0.30;99.90
6206;DHT22;3136;48.788;9.772;2023-03-03T06:15:17;0.40;99.90
6206;DHT22;3136;48.788;9.772;2023-03-03T06:17:43;0.30;99.90
6206;DHT22;3136;48.788;9.772;2023-03-03T06:20:09;0.40;99.90
6206;DHT22;3136;48.788;9.772;2023-03-03T06:22:35;0.40;99.90
6206;DHT22;3136;48.788;9.772;2023-03-03T06:25:01;0.40;99.90
6206;DHT22;3136;48.788;9.772;2023-03-03T06:27:26;0.40;99.90
6206;DHT22;3136;48.788;9.772;2023-03-03T06:29:52;0.40;99.90
6206;DHT22;3136;48.788;9.772;2023-03-03T06:32:17;0.40;99.90
6206;DHT22;3136;48.788;9.772;2023-03-03T06:34:43;0.50;99.90
6206;DHT22;3136;48.788;9.772;2023-03-03T06:37:09;0.50;99.90
6206;DHT22;3136;48.788;9.772;2023-03-03T06:39:34;0.50;99.90
6206;DHT22;3136;48.788;9.772;2023-03-03T06:42:00;0.60;76.50
6206;DHT22;3136;48.788;9.772;2023-03-03T06:44:25;0.60;41.50
6206;DHT22;3136;48.788;9.772;2023-03-03T06:46:51;0.10;39.40
6206;DHT22;3136;48.788;9.772;2023-03-03T06:49:17;0.60;45.90
6206;DHT22;3136;48.788;9.772;2023-03-03T06:51:43;0.60;50.90
6206;DHT22;3136;48.788;9.772;2023-03-03T06:54:24;0.60;51.40
6206;DHT22;3136;48.788;9.772;2023-03-03T06:56:54;0.60;23.70
6206;DHT22;3136;48.788;9.772;2023-03-03T06:59:22;0.60;13.90
6206;DHT22;3136;48.788;9.772;2023-03-03T07:01:49;0.70;1.00
6206;DHT22;3136;48.788;9.772;2023-03-03T07:04:23;0.70;11.70
6206;DHT22;3136;48.788;9.772;2023-03-03T07:06:50;-0.40;38.90
6206;DHT22;3136;48.788;9.772;2023-03-03T07:09:26;0.80;13.70
6206;DHT22;3136;48.788;9.772;2023-03-03T07:12:30;0.90;15.60
6206;DHT22;3136;48.788;9.772;2023-03-03T07:15:33;0.90;1.00
6206;DHT22;3136;48.788;9.772;2023-03-03T07:17:59;1.00;1.00
6206;DHT22;3136;48.788;9.772;2023-03-03T07:20:32;1.10;1.00
6206;DHT22;3136;48.788;9.772;2023-03-03T07:23:00;1.20;1.00
6206;DHT22;3136;48.788;9.772;2023-03-03T07:25:33;1.20;1.00
6206;DHT22;3136;48.788;9.772;2023-03-03T07:28:31;1.40;1.00
6206;DHT22;3136;48.788;9.772;2023-03-03T07:30:57;1.50;99.90
6206;DHT22;3136;48.788;9.772;2023-03-03T07:33:26;1.60;99.90
6206;DHT22;3136;48.788;9.772;2023-03-03T07:35:55;1.60;81.50
6206;DHT22;3136;48.788;9.772;2023-03-03T07:38:36;1.70;91.90
6206;DHT22;3136;48.788;9.772;2023-03-03T07:41:05;1.80;1.00
6206;DHT22;3136;48.788;9.772;2023-03-03T07:43:40;1.90;1.00
6206;DHT22;3136;48.788;9.772;2023-03-03T07:48:37;2.00;1.00
6206;DHT22;3136;48.788;9.772;2023-03-03T07:51:19;2.90;1.00
6206;DHT22;3136;48.788;9.772;2023-03-03T07:53:47;2.20;1.00
6206;DHT22;3136;48.788;9.772;2023-03-03T07:56:34;2.20;1.00
6206;DHT22;3136;48.788;9.772;2023-03-03T07:59:07;2.40;1.00
6206;DHT22;3136;48.788;9.772;2023-03-03T08:01:43;2.50;99.90
6206;DHT22;3136;48.788;9.772;2023-03-03T08:04:39;2.50;99.90
6206;DHT22;3136;48.788;9.772;2023-03-03T08:07:12;2.70;99.90
6206;DHT22;3136;48.788;9.772;2023-03-03T08:09:46;2.80;99.90
6206;DHT22;3136;48.788;9.772;2023-03-03T08:12:22;2.80;99.90
6206;DHT22;3136;48.788;9.772;2023-03-03T08:14:51;2.90;99.90
6206;DHT22;3136;48.788;9.772;2023-03-03T08:17:23;2.90;99.90
6206;DHT22;3136;48.788;9.772;2023-03-03T08:19:52;3.00;99.90
6206;DHT22;3136;48.788;9.772;2023-03-03T08:22:34;3.00;99.90
6206;DHT22;3136;48.788;9.772;2023-03-03T08:25:00;3.00;99.90
6206;DHT22;3136;48.788;9.772;2023-03-03T08:27:26;3.00;99.90
6206;DHT22;3136;48.788;9.772;2023-03-03T08:29:52;3.10;99.90
6206;DHT22;3136;48.788;9.772;2023-03-03T08:32:17;3.10;99.90
6206;DHT22;3136;48.788;9.772;2023-03-03T08:34:43;3.20;99.90
6206;DHT22;3136;48.788;9.772;2023-03-03T08:37:09;3.30;99.90
6206;DHT22;3136;48.788;9.772;2023-03-03T08:39:34;3.30;99.90
6206;DHT22;3136;48.788;9.772;2023-03-03T08:42:00;3.40;99.90
6206;DHT22;3136;48.788;9.772;2023-03-03T08:44:25;3.50;99.90
6206;DHT22;3136;48.788;9.772;2023-03-03T08:46:51;3.60;99.90
6206;DHT22;3136;48.788;9.772;2023-03-03T08:49:16;3.70;99.90
6206;DHT22;3136;48.788;9.772;2023-03-03T08:51:42;3.90;99.90
6206;DHT22;3136;48.788;9.772;2023-03-03T08:54:07;4.10;99.90
6206;DHT22;3136;48.788;9.772;2023-03-03T08:56:33;4.20;99.90
6206;DHT22;3136;48.788;9.772;2023-03-03T08:58:59;4.40;99.90
6206;DHT22;3136;48.788;9.772;2023-03-03T09:01:24;4.50;99.90
6206;DHT22;3136;48.788;9.772;2023-03-03T09:03:50;4.60;99.90
6206;DHT22;3136;48.788;9.772;2023-03-03T09:06:15;4.80;99.90
6206;DHT22;3136;48.788;9.772;2023-03-03T09:08:41;4.90;99.90
6206;DHT22;3136;48.788;9.772;2023-03-03T09:11:12;5.40;99.90
6206;DHT22;3136;48.788;9.772;2023-03-03T09:13:38;4.90;99.90
6206;DHT22;3136;48.788;9.772;2023-03-03T09:16:12;5.00;99.90
6206;DHT22;3136;48.788;9.772;2023-03-03T09:18:39;5.20;99.90
6206;DHT22;3136;48.788;9.772;2023-03-03T09:21:25;5.40;99.90
6206;DHT22;3136;48.788;9.772;2023-03-03T09:24:00;5.50;99.90
6206;DHT22;3136;48.788;9.772;2023-03-03T09:32:00;5.60;99.90
6206;DHT22;3136;48.788;9.772;2023-03-03T09:34:39;5.80;99.90
6206;DHT22;3136;48.788;9.772;2023-03-03T09:37:20;5.90;99.90
6206;DHT22;3136;48.788;9.772;2023-03-03T09:39:52;6.00;99.90
6206;DHT22;3136;48.788;9.772;2023-03-03T09:53:53;7.00;93.40
6206;DHT22;3136;48.788;9.772;2023-03-03T10:04:43;7.20;88.00
6206;DHT22;3136;48.788;9.772;2023-03-03T10:07:32;7.50;90.00
6206;DHT22;3136;48.788;9.772;2023-03-03T10:21:35;8.80;67.40
6206;DHT22;3136;48.788;9.772;2023-03-03T10:24:19;9.10;59.20
6206;DHT22;3136;48.788;9.772;2023-03-03T10:27:04;9.00;61.80
6206;DHT22;3136;48.788;9.772;2023-03-03T10:37:45;9.40;53.70
6206;DHT22;3136;48.788;9.772;2023-03-03T10:43:24;9.10;54.00
6206;DHT22;3136;48.788;9.772;2023-03-03T10:46:32;9.10;54.70
6206;DHT22;3136;48.788;9.772;2023-03-03T10:57:35;10.10;46.30
6206;DHT22;3136;48.788;9.772;2023-03-03T11:00:25;10.20;44.80
6206;DHT22;3136;48.788;9.772;2023-03-03T11:08:20;11.00;42.40
6206;DHT22;3136;48.788;9.772;2023-03-03T11:21:50;12.10;38.90
6206;DHT22;3136;48.788;9.772;2023-03-03T11:32:31;11.50;36.90
6206;DHT22;3136;48.788;9.772;2023-03-03T11:35:17;11.40;36.70
6206;DHT22;3136;48.788;9.772;2023-03-03T11:37:57;11.20;36.90
6206;DHT22;3136;48.788;9.772;2023-03-03T11:40:42;11.20;36.20
6206;DHT22;3136;48.788;9.772;2023-03-03T11:43:18;11.10;35.30
6206;DHT22;3136;48.788;9.772;2023-03-03T11:45:56;11.00;35.60
6206;DHT22;3136;48.788;9.772;2023-03-03T11:48:39;11.10;34.30
6206;DHT22;3136;48.788;9.772;2023-03-03T11:51:13;10.90;33.50
6206;DHT22;3136;48.788;9.772;2023-03-03T11:53:44;10.70;33.70
6206;DHT22;3136;48.788;9.772;2023-03-03T12:01:41;10.70;33.80
6206;DHT22;3136;48.788;9.772;2023-03-03T12:04:12;10.90;33.90
6206;DHT22;3136;48.788;9.772;2023-03-03T12:10:08;11.30;33.50
6206;DHT22;3136;48.788;9.772;2023-03-03T12:12:49;11.60;33.60
6206;DHT22;3136;48.788;9.772;2023-03-03T12:18:10;12.40;32.30
6206;DHT22;3136;48.788;9.772;2023-03-03T12:23:42;13.00;30.60
6206;DHT22;3136;48.788;9.772;2023-03-03T12:26:16;13.40;29.10
6206;DHT22;3136;48.788;9.772;2023-03-03T12:28:54;13.90;28.80
6206;DHT22;3136;48.788;9.772;2023-03-03T12:31:48;14.70;29.70
6206;DHT22;3136;48.788;9.772;2023-03-03T12:37:20;14.70;27.90
6206;DHT22;3136;48.788;9.772;2023-03-03T12:40:01;16.10;27.40
6206;DHT22;3136;48.788;9.772;2023-03-03T12:48:07;19.30;27.70
6206;DHT22;3136;48.788;9.772;2023-03-03T12:56:03;19.70;24.60
6206;DHT22;3136;48.788;9.772;2023-03-03T12:58:41;19.80;24.40
6206;DHT22;3136;48.788;9.772;2023-03-03T13:04:39;19.00;23.10
6206;DHT22;3136;48.788;9.772;2023-03-03T13:07:21;17.90;41.20
6206;DHT22;3136;48.788;9.772;2023-03-03T13:10:02;17.00;21.40
6206;DHT22;3136;48.788;9.772;2023-03-03T13:13:06;17.20;21.80
6206;DHT22;3136;48.788;9.772;2023-03-03T13:15:59;18.60;22.20
6206;DHT22;3136;48.788;9.772;2023-03-03T13:21:49;19.00;21.80
6206;DHT22;3136;48.788;9.772;2023-03-03T13:24:30;18.00;20.80
6206;DHT22;3136;48.788;9.772;2023-03-03T13:27:02;17.80;20.30
6206;DHT22;3136;48.788;9.772;2023-03-03T13:29:36;17.80;20.10
6206;DHT22;3136;48.788;9.772;2023-03-03T13:32:11;17.60;21.90
6206;DHT22;3136;48.788;9.772;2023-03-03T13:35:00;18.00;20.90
6206;DHT22;3136;48.788;9.772;2023-03-03T13:37:30;19.10;20.60
6206;DHT22;3136;48.788;9.772;2023-03-03T13:40:21;19.80;19.90
6206;DHT22;3136;48.788;9.772;2023-03-03T13:43:31;20.50;20.40
6206;DHT22;3136;48.788;9.772;2023-03-03T13:45:55;21.10;20.40
6206;DHT22;3136;48.788;9.772;2023-03-03T13:48:36;20.30;19.10
6206;DHT22;3136;48.788;9.772;2023-03-03T13:59:39;21.70;19.70
6206;DHT22;3136;48.788;9.772;2023-03-03T14:05:02;21.40;18.40
6206;DHT22;3136;48.788;9.772;2023-03-03T14:07:38;21.30;17.60
6206;DHT22;3136;48.788;9.772;2023-03-03T14:13:11;21.80;17.70
6206;DHT22;3136;48.788;9.772;2023-03-03T14:20:59;21.40;16.10
6206;DHT22;3136;48.788;9.772;2023-03-03T14:26:29;21.20;15.30
6206;DHT22;3136;48.788;9.772;2023-03-03T14:32:02;21.30;16.20
6206;DHT22;3136;48.788;9.772;2023-03-03T14:34:39;21.20;15.10
6206;DHT22;3136;48.788;9.772;2023-03-03T14:37:27;21.20;14.30
6206;DHT22;3136;48.788;9.772;2023-03-03T14:47:55;21.00;13.60
6206;DHT22;3136;48.788;9.772;2023-03-03T14:50:34;20.50;13.30
6206;DHT22;3136;48.788;9.772;2023-03-03T14:53:21;19.90;12.60
6206;DHT22;3136;48.788;9.772;2023-03-03T14:55:51;19.70;12.40
6206;DHT22;3136;48.788;9.772;2023-03-03T14:58:40;19.80;13.00
6206;DHT22;3136;48.788;9.772;2023-03-03T15:03:35;19.30;12.00
6206;DHT22;3136;48.788;9.772;2023-03-03T15:06:10;18.80;11.40
6206;DHT22;3136;48.788;9.772;2023-03-03T15:08:39;18.70;11.70
6206;DHT22;3136;48.788;9.772;2023-03-03T15:13:43;18.40;12.10
6206;DHT22;3136;48.788;9.772;2023-03-03T15:16:16;18.20;10.60
6206;DHT22;3136;48.788;9.772;2023-03-03T15:19:01;17.60;10.50
6206;DHT22;3136;48.788;9.772;2023-03-03T15:21:32;17.00;9.90
6206;DHT22;3136;48.788;9.772;2023-03-03T15:24:24;16.70;9.90
6206;DHT22;3136;48.788;9.772;2023-03-03T15:27:00;16.10;10.20
6206;DHT22;3136;48.788;9.772;2023-03-03T15:32:20;16.00;10.70
6206;DHT22;3136;48.788;9.772;2023-03-03T15:37:37;15.00;9.50
6206;DHT22;3136;48.788;9.772;2023-03-03T15:40:23;14.40;9.30
6206;DHT22;3136;48.788;9.772;2023-03-03T15:43:08;13.80;9.80
6206;DHT22;3136;48.788;9.772;2023-03-03T15:46:01;13.20;9.30
6206;DHT22;3136;48.788;9.772;2023-03-03T15:54:04;11.70;10.10
6206;DHT22;3136;48.788;9.772;2023-03-03T15:56:44;11.20;10.30
6206;DHT22;3136;48.788;9.772;2023-03-03T16:02:09;10.50;12.80
6206;DHT22;3136;48.788;9.772;2023-03-03T16:13:15;10.00;13.50
6206;DHT22;3136;48.788;9.772;2023-03-03T16:23:45;9.40;16.10
6206;DHT22;3136;48.788;9.772;2023-03-03T16:29:04;8.70;20.30
6206;DHT22;3136;48.788;9.772;2023-03-03T16:34:32;8.20;23.60
6206;DHT22;3136;48.788;9.772;2023-03-03T16:40:10;7.70;28.10
6206;DHT22;3136;48.788;9.772;2023-03-03T16:42:36;7.40;30.80
6206;DHT22;3136;48.788;9.772;2023-03-03T16:45:08;7.20;34.30
6206;DHT22;3136;48.788;9.772;2023-03-03T17:00:54;6.10;99.90
6206;DHT22;3136;48.788;9.772;2023-03-03T17:03:44;5.90;99.90
6206;DHT22;3136;48.788;9.772;2023-03-03T17:09:32;5.60;99.90
6206;DHT22;3136;48.788;9.772;2023-03-03T17:12:22;5.50;99.90
6206;DHT22;3136;48.788;9.772;2023-03-03T17:15:15;5.30;99.90
6206;DHT22;3136;48.788;9.772;2023-03-03T17:17:50;5.10;99.90
6206;DHT22;3136;48.788;9.772;2023-03-03T17:31:30;4.50;99.90
6206;DHT22;3136;48.788;9.772;2023-03-03T17:37:16;4.20;99.90
6206;DHT22;3136;48.788;9.772;2023-03-03T17:42:28;3.90;99.90
6206;DHT22;3136;48.788;9.772;2023-03-03T18:02:20;3.30;99.90
6206;DHT22;3136;48.788;9.772;2023-03-03T18:08:05;3.20;99.90
6206;DHT22;3136;48.788;9.772;2023-03-03T18:10:39;3.10;99.90
6206;DHT22;3136;48.788;9.772;2023-03-03T18:13:12;3.00;99.90
6206;DHT22;3136;48.788;9.772;2023-03-03T18:18:51;2.70;99.90
6206;DHT22;3136;48.788;9.772;2023-03-03T18:24:26;2.50;99.90
6206;DHT22;3136;48.788;9.772;2023-03-03T18:26:53;2.40;99.90
6206;DHT22;3136;48.788;9.772;2023-03-03T18:29:26;2.40;99.90
6206;DHT22;3136;48.788;9.772;2023-03-03T18:36:56;2.40;99.90
6206;DHT22;3136;48.788;9.772;2023-03-03T18:39:45;2.30;99.90
6206;DHT22;3136;48.788;9.772;2023-03-03T18:44:41;2.20;99.90
6206;DHT22;3136;48.788;9.772;2023-03-03T18:47:07;2.10;99.90
6206;DHT22;3136;48.788;9.772;2023-03-03T18:50:00;2.10;99.90
6206;DHT22;3136;48.788;9.772;2023-03-03T18:52:31;2.00;99.90
6206;DHT22;3136;48.788;9.772;2023-03-03T18:57:35;1.90;99.90
6206;DHT22;3136;48.788;9.772;2023-03-03T19:00:15;1.80;99.90
6206;DHT22;3136;48.788;9.772;2023-03-03T19:02:57;1.80;99.90
6206;DHT22;3136;48.788;9.772;2023-03-03T19:05:35;1.70;1.00
6206;DHT22;3136;48.788;9.772;2023-03-03T19:08:21;1.70;1.00
6206;DHT22;3136;48.788;9.772;2023-03-03T19:10:53;1.60;1.00
6206;DHT22;3136;48.788;9.772;2023-03-03T19:16:31;1.50;1.00
6206;DHT22;3136;48.788;9.772;2023-03-03T19:18:59;1.40;1.00
6206;DHT22;3136;48.788;9.772;2023-03-03T19:21:36;1.40;1.00
6206;DHT22;3136;48.788;9.772;2023-03-03T19:24:03;1.40;1.00
6206;DHT22;3136;48.788;9.772;2023-03-03T19:29:21;1.20;1.00
6206;DHT22;3136;48.788;9.772;2023-03-03T19:32:00;1.10;1.00
6206;DHT22;3136;48.788;9.772;2023-03-03T19:56:44;0.60;1.00
6206;DHT22;3136;48.788;9.772;2023-03-03T20:02:32;0.70;30.00
6206;DHT22;3136;48.788;9.772;2023-03-03T20:05:18;0.70;99.90
6206;DHT22;3136;48.788;9.772;2023-03-03T20:10:34;0.60;99.90
6206;DHT22;3136;48.788;9.772;2023-03-03T20:13:08;0.50;99.90
6206;DHT22;3136;48.788;9.772;2023-03-03T20:15:41;0.50;99.90
6206;DHT22;3136;48.788;9.772;2023-03-03T20:30:44;0.20;99.90
6206;DHT22;3136;48.788;9.772;2023-03-03T20:38:43;0.10;1.00
6206;DHT22;3136;48.788;9.772;2023-03-03T20:52:26;0.00;1.00
6206;DHT22;3136;48.788;9.772;2023-03-03T20:55:34;-0.10;1.00
6206;DHT22;3136;48.788;9.772;2023-03-03T21:00:39;-0.20;1.00
6206;DHT22;3136;48.788;9.772;2023-03-03T21:05:58;-0.30;1.00
6206;DHT22;3136;48.788;9.772;2023-03-03T21:08:48;-0.30;1.00
6206;DHT22;3136;48.788;9.772;2023-03-03T21:11:19;-0.40;1.00
6206;DHT22;3136;48.788;9.772;2023-03-03T21:13:54;-0.40;1.00
6206;DHT22;3136;48.788;9.772;2023-03-03T21:19:06;-0.50;99.90
6206;DHT22;3136;48.788;9.772;2023-03-03T21:21:39;-0.50;99.90
6206;DHT22;3136;48.788;9.772;2023-03-03T21:24:08;-0.50;99.90
6206;DHT22;3136;48.788;9.772;2023-03-03T21:32:01;-0.50;1.00
6206;DHT22;3136;48.788;9.772;2023-03-03T21:34:36;-0.50;1.00
6206;DHT22;3136;48.788;9.772;2023-03-03T21:37:05;-0.50;1.00
6206;DHT22;3136;48.788;9.772;2023-03-03T21:39:37;-0.60;1.00
6206;DHT22;3136;48.788;9.772;2023-03-03T21:44:44;-0.60;1.00
6206;DHT22;3136;48.788;9.772;2023-03-03T21:47:16;-0.60;1.00
6206;DHT22;3136;48.788;9.772;2023-03-03T21:49:43;-0.60;1.00
6206;DHT22;3136;48.788;9.772;2023-03-03T21:52:10;-0.70;1.00
6206;DHT22;3136;48.788;9.772;2023-03-03T21:54:36;-0.70;1.00
6206;DHT22;3136;48.788;9.772;2023-03-03T21:57:02;-0.70;1.00
6206;DHT22;3136;48.788;9.772;2023-03-03T21:59:27;-0.50;1.00
6206;DHT22;3136;48.788;9.772;2023-03-03T22:01:53;-0.80;1.00
6206;DHT22;3136;48.788;9.772;2023-03-03T22:04:18;-0.80;23.40
6206;DHT22;3136;48.788;9.772;2023-03-03T22:06:44;-0.80;67.80
6206;DHT22;3136;48.788;9.772;2023-03-03T22:09:10;-0.80;99.90
6206;DHT22;3136;48.788;9.772;2023-03-03T22:11:36;-0.90;99.90
6206;DHT22;3136;48.788;9.772;2023-03-03T22:14:02;-0.90;99.90
6206;DHT22;3136;48.788;9.772;2023-03-03T22:16:28;-0.90;99.90
6206;DHT22;3136;48.788;9.772;2023-03-03T22:18:54;-0.90;99.90
6206;DHT22;3136;48.788;9.772;2023-03-03T22:21:20;-1.00;99.90
6206;DHT22;3136;48.788;9.772;2023-03-03T22:23:46;-1.00;99.90
6206;DHT22;3136;48.788;9.772;2023-03-03T22:26:11;-1.00;99.90
6206;DHT22;3136;48.788;9.772;2023-03-03T22:28:37;-1.00;1.00
6206;DHT22;3136;48.788;9.772;2023-03-03T22:31:03;-1.10;1.00
6206;DHT22;3136;48.788;9.772;2023-03-03T22:33:28;-1.10;1.00
6206;DHT22;3136;48.788;9.772;2023-03-03T22:35:54;-1.10;1.00
6206;DHT22;3136;48.788;9.772;2023-03-03T22:38:19;-1.20;1.00
6206;DHT22;3136;48.788;9.772;2023-03-03T22:40:45;-1.20;1.00